Time;durP1;ratioP1;P1;durP2;ratioP2;P2;SDS_P1;SDS_P2;PMS_P1;PMS_P2;Temp;Humidity;BMP_temperature;BMP_pressure;BME280_temperature;BME280_humidity;BME280_pressure;Samples;Min_cycle;Max_cycle;Signal;HPM_P1;HPM_P2
2023/03/07 00:00:32;;;;;;;5.30;1.22;;;;;;;1.02;61.48;101343.30;1847213;78;21493;-45
2023/03/07 00:03:01;;;;;;;5.47;1.57;;;;;;;1.11;61.45;101339.93;1847235;78;21050;-44
2023/03/07 00:05:30;;;;;;;9.78;2.90;;;;;;;1.19;61.43;101345.19;1847291;78;21124;-44
2023/03/07 00:07:59;;;;;;;9.75;2.20;;;;;;;1.23;61.43;101346.95;1862170;76;21132;-44
2023/03/07 00:10:28;;;;;;;18.35;5.72;;;;;;;1.26;61.37;101337.91;1844683;78;21120;-45
2023/03/07 00:12:57;;;;;;;13.48;4.20;;;;;;;1.27;61.33;101334.44;1843729;77;21055;-45
2023/03/07 00:15:25;;;;;;;13.98;4.47;;;;;;;1.23;61.32;101332.68;1852837;77;21211;-43
2023/03/07 00:17:54;;;;;;;8.45;4.95;;;;;;;1.15;61.41;101339.96;1843486;77;21103;-44
2023/03/07 00:20:22;;;;;;;9.53;3.27;;;;;;;1.08;61.50;101322.59;1832430;77;21045;-42
2023/03/07 00:22:51;;;;;;;13.10;3.35;;;;;;;1.05;61.62;101326.89;1846445;77;21135;-43
2023/03/07 00:25:20;;;;;;;5.30;2.27;;;;;;;1.00;61.71;101326.86;1842354;77;21126;-48
2023/03/07 00:27:48;;;;;;;4.90;2.02;;;;;;;0.98;61.76;101323.78;1852410;77;21113;-48
2023/03/07 00:30:17;;;;;;;12.50;2.72;;;;;;;0.96;61.77;101317.31;1837013;75;21182;-44
2023/03/07 00:32:46;;;;;;;11.75;2.80;;;;;;;0.92;61.81;101315.52;1837505;77;21227;-43
2023/03/07 00:35:15;;;;;;;8.28;2.95;;;;;;;0.86;61.93;101321.95;1836492;77;20998;-47
2023/03/07 00:37:43;;;;;;;8.40;3.27;;;;;;;0.79;62.11;101313.66;1855965;77;21614;-45
2023/03/07 00:40:14;;;;;;;14.73;3.27;;;;;;;0.76;62.26;101309.33;1851155;77;21111;-44
2023/03/07 00:42:43;;;;;;;8.13;1.62;;;;;;;0.79;62.25;101308.48;1845902;77;21041;-46
2023/03/07 00:45:12;;;;;;;1.42;0.95;;;;;;;0.87;62.19;101305.13;1841578;77;21112;-45
2023/03/07 00:47:41;;;;;;;7.50;1.60;;;;;;;1.00;62.08;101303.52;1852106;77;21571;-44
2023/03/07 00:50:10;;;;;;;7.08;2.20;;;;;;;1.13;61.99;101302.77;1839987;76;21483;-45
2023/03/07 00:52:39;;;;;;;5.28;1.50;;;;;;;1.22;61.90;101295.91;1839692;77;21139;-44
2023/03/07 00:55:09;;;;;;;2.62;1.20;;;;;;;1.26;61.82;101290.77;1838848;77;21027;-43
2023/03/07 00:57:38;;;;;;;3.87;0.90;;;;;;;1.35;61.86;101288.25;1860759;77;21049;-44
2023/03/07 01:00:09;;;;;;;4.45;1.10;;;;;;;1.42;61.83;101285.28;1861364;77;21066;-46
2023/03/07 01:02:38;;;;;;;10.05;1.35;;;;;;;1.52;61.90;101288.36;1862272;77;21023;-46
2023/03/07 01:05:07;;;;;;;2.45;0.90;;;;;;;1.63;61.92;101286.28;1862261;76;21027;-47
2023/03/07 01:07:36;;;;;;;1.12;0.80;;;;;;;1.81;62.52;101279.91;1862425;77;21027;-44
2023/03/07 01:10:05;;;;;;;4.00;0.57;;;;;;;2.04;62.98;101273.95;1862415;77;21137;-45
2023/03/07 01:12:34;;;;;;;5.03;0.85;;;;;;;2.30;62.67;101263.22;1861306;77;21077;-45
2023/03/07 01:15:05;;;;;;;1.27;0.90;;;;;;;2.53;62.67;101262.84;1852368;77;21122;-45
2023/03/07 01:17:34;;;;;;;0.98;0.90;;;;;;;2.66;62.43;101255.09;1820261;79;21117;-46
2023/03/07 01:20:05;;;;;;;3.17;0.90;;;;;;;2.72;62.27;101252.94;1820317;79;21146;-46
2023/03/07 01:22:35;;;;;;;1.27;0.78;;;;;;;2.81;62.21;101255.99;1820363;78;21101;-44
2023/03/07 01:25:04;;;;;;;2.95;0.98;;;;;;;2.82;62.07;101250.80;1820006;79;21180;-44
2023/03/07 01:27:32;;;;;;;2.08;0.70;;;;;;;2.82;62.22;101249.91;1821868;79;21129;-42
2023/03/07 01:30:02;;;;;;;1.35;1.05;;;;;;;2.86;62.20;101242.56;1827061;77;21589;-44
2023/03/07 01:32:31;;;;;;;2.40;0.62;;;;;;;2.83;62.25;101242.11;1858673;77;21646;-50
2023/03/07 01:35:00;;;;;;;1.67;0.70;;;;;;;2.78;62.23;101237.33;1858863;77;21069;-46
2023/03/07 01:37:29;;;;;;;1.00;0.80;;;;;;;2.73;62.41;101232.99;1858709;77;21045;-45
2023/03/07 01:39:58;;;;;;;1.55;0.80;;;;;;;2.73;62.77;101243.39;1858880;77;21493;-46
2023/03/07 01:42:30;;;;;;;4.33;1.15;;;;;;;2.76;62.97;101248.61;1858660;77;21081;-46
2023/03/07 01:45:08;;;;;;;5.90;1.00;;;;;;;2.74;62.95;101249.04;1816090;77;21121;-43
2023/03/07 01:47:45;;;;;;;2.30;1.00;;;;;;;2.69;63.27;101254.22;1819181;78;21056;-42
2023/03/07 01:50:16;;;;;;;0.55;0.50;;;;;;;2.67;63.55;101255.95;1819237;79;21094;-42
2023/03/07 01:52:52;;;;;;;2.45;1.50;;;;;;;2.61;63.55;101251.61;1818370;78;21140;-44
2023/03/07 01:55:23;;;;;;;3.05;1.62;;;;;;;2.58;63.73;101250.30;1815633;78;21066;-41
2023/03/07 01:57:56;;;;;;;2.62;1.15;;;;;;;2.63;63.95;101247.28;1815517;79;21627;-43
2023/03/07 02:00:28;;;;;;;2.35;0.85;;;;;;;2.67;64.04;101251.64;1817929;79;21067;-45
2023/03/07 02:03:10;;;;;;;1.02;0.40;;;;;;;2.74;64.10;101249.90;1821325;77;21045;-44
2023/03/07 02:05:43;;;;;;;2.27;0.70;;;;;;;2.82;64.06;101250.80;1812893;79;21042;-44
2023/03/07 02:08:14;;;;;;;2.52;0.90;;;;;;;2.91;63.93;101239.51;1807790;79;21100;-44
2023/03/07 02:10:43;;;;;;;2.15;1.62;;;;;;;2.97;63.99;101249.94;1821093;78;21007;-46
2023/03/07 02:13:12;;;;;;;1.25;0.45;;;;;;;3.04;63.95;101242.57;1810377;79;21473;-47
2023/03/07 02:15:41;;;;;;;1.95;0.75;;;;;;;3.14;63.92;101245.17;1819567;76;21619;-46
2023/03/07 02:18:13;;;;;;;1.27;0.57;;;;;;;3.18;63.80;101237.79;1842358;77;21046;-46
2023/03/07 02:21:02;;;;;;;0.80;0.80;;;;;;;3.25;63.71;101242.12;1861235;77;21062;-42
2023/03/07 02:23:43;;;;;;;1.82;0.98;;;;;;;3.35;63.61;101237.33;1832876;77;21242;-46
2023/03/07 02:26:23;;;;;;;2.00;0.80;;;;;;;3.44;63.35;101230.80;1850807;77;21136;-46
2023/03/07 02:28:53;;;;;;;2.62;1.17;;;;;;;3.50;63.25;101237.73;1835169;77;21666;-45
2023/03/07 02:31:22;;;;;;;8.13;1.02;;;;;;;3.54;63.19;101228.18;1844847;75;21276;-45
2023/03/07 02:33:52;;;;;;;1.50;0.90;;;;;;;3.58;63.16;101233.80;1840620;77;21529;-44
2023/03/07 02:36:25;;;;;;;2.62;0.93;;;;;;;3.68;62.87;101236.39;1853716;77;21699;-45
2023/03/07 02:38:56;;;;;;;2.45;1.12;;;;;;;3.82;62.69;101220.73;1833309;76;21174;-44
2023/03/07 02:41:28;;;;;;;2.22;0.80;;;;;;;3.89;62.61;101217.65;1837878;77;21039;-45
2023/03/07 02:43:59;;;;;;;5.35;1.55;;;;;;;3.92;62.52;101208.98;1832991;77;21458;-46
2023/03/07 02:46:28;;;;;;;3.12;1.02;;;;;;;3.94;62.42;101204.62;1850678;77;21859;-45
2023/03/07 02:48:56;;;;;;;1.95;1.05;;;;;;;3.96;62.34;101198.96;1840527;77;21618;-48
2023/03/07 02:51:25;;;;;;;2.58;0.68;;;;;;;3.98;62.14;101189.39;1833034;77;21075;-46
2023/03/07 02:53:54;;;;;;;1.02;0.70;;;;;;;3.98;62.14;101193.30;1852027;77;21191;-48
2023/03/07 02:56:22;;;;;;;2.12;0.90;;;;;;;3.94;62.23;101192.89;1834337;77;21549;-46
2023/03/07 02:58:51;;;;;;;6.30;1.25;;;;;;;3.93;62.36;101197.66;1848193;77;21006;-48
2023/03/07 03:01:20;;;;;;;2.98;1.52;;;;;;;3.94;62.43;101204.62;1840831;77;21542;-44
2023/03/07 03:03:49;;;;;;;1.62;0.85;;;;;;;3.94;62.48;101200.71;1854597;76;21540;-48
2023/03/07 03:06:17;;;;;;;2.30;0.90;;;;;;;3.95;62.62;101202.46;1848837;77;21251;-48
2023/03/07 03:08:46;;;;;;;1.20;1.07;;;;;;;3.93;62.73;101205.06;1825279;78;21083;-48
2023/03/07 03:11:15;;;;;;;1.90;0.78;;;;;;;3.94;62.88;101196.36;1854420;77;21047;-46
2023/03/07 03:13:43;;;;;;;1.35;0.95;;;;;;;3.96;62.87;101195.91;1862456;77;21072;-46
2023/03/07 03:16:12;;;;;;;1.67;0.98;;;;;;;3.99;62.88;101204.17;1862578;76;21055;-46
2023/03/07 03:18:41;;;;;;;0.78;0.60;;;;;;;4.01;62.88;101212.84;1864528;77;21032;-46
2023/03/07 03:21:11;;;;;;;0.50;0.50;;;;;;;4.03;62.82;101212.40;1852958;77;21038;-46
2023/03/07 03:23:39;;;;;;;2.33;0.95;;;;;;;4.07;62.82;101223.23;1847273;78;21116;-45
2023/03/07 03:26:10;;;;;;;2.72;0.82;;;;;;;4.07;62.87;101218.02;1847319;78;21481;-46
2023/03/07 03:28:40;;;;;;;3.33;1.30;;;;;;;4.10;62.84;101221.06;1847343;78;21477;-45
2023/03/07 03:31:13;;;;;;;0.65;0.60;;;;;;;4.10;62.84;101214.55;1844026;78;21477;-46
2023/03/07 03:33:43;;;;;;;1.22;0.88;;;;;;;4.12;62.96;101220.62;1847177;76;21058;-46
2023/03/07 03:36:15;;;;;;;3.40;0.72;;;;;;;4.15;62.96;101201.03;1847243;78;21078;-46
2023/03/07 03:38:45;;;;;;;1.30;0.80;;;;;;;4.17;62.94;101215.81;1847191;78;21054;-47
2023/03/07 03:41:15;;;;;;;1.30;0.72;;;;;;;4.20;62.90;101200.13;1836575;78;21561;-47
2023/03/07 03:43:45;;;;;;;1.35;1.00;;;;;;;4.21;62.87;101217.52;1810368;79;21201;-46
2023/03/07 03:46:15;;;;;;;2.72;0.90;;;;;;;4.22;62.93;101224.89;1810411;79;21084;-47
2023/03/07 03:48:44;;;;;;;2.27;0.78;;;;;;;4.19;62.92;101219.27;1810607;78;21134;-50
2023/03/07 03:51:14;;;;;;;1.60;0.93;;;;;;;4.17;62.88;101220.13;1812787;78;21290;-48
2023/03/07 03:53:42;;;;;;;2.85;0.75;;;;;;;4.13;62.89;101225.83;1810431;79;21507;-48
2023/03/07 03:56:14;;;;;;;1.10;0.72;;;;;;;4.10;62.99;101223.23;1810229;79;21064;-48
2023/03/07 03:58:43;;;;;;;2.15;1.10;;;;;;;4.06;63.13;101228.03;1810323;79;21088;-48
2023/03/07 04:01:13;;;;;;;2.20;0.90;;;;;;;4.03;63.31;101229.34;1810465;79;21492;-44
2023/03/07 04:03:49;;;;;;;4.20;1.15;;;;;;;4.01;63.37;101240.20;1844385;78;21077;-44
2023/03/07 04:06:21;;;;;;;2.55;0.60;;;;;;;4.00;63.53;101235.85;1847350;78;21128;-43
2023/03/07 04:08:51;;;;;;;2.22;1.22;;;;;;;4.01;63.60;101244.97;1847219;77;21549;-42
2023/03/07 04:11:21;;;;;;;1.70;0.80;;;;;;;4.00;63.66;101238.45;1846898;78;21051;-43
2023/03/07 04:13:50;;;;;;;1.05;0.57;;;;;;;4.01;63.92;101245.42;1847324;78;21042;-45
2023/03/07 04:16:21;;;;;;;3.00;0.70;;;;;;;4.03;63.86;101238.02;1847186;76;21503;-46
2023/03/07 04:18:50;;;;;;;4.50;1.20;;;;;;;4.09;64.11;101250.59;1855179;77;21143;-46
2023/03/07 04:21:20;;;;;;;3.85;0.88;;;;;;;4.12;64.00;101248.84;1856632;76;21090;-45
2023/03/07 04:23:54;;;;;;;1.25;0.88;;;;;;;4.15;64.05;101253.16;1856755;77;21062;-46
2023/03/07 04:26:20;;;;;;;2.15;0.90;;;;;;;4.18;64.23;101248.80;1826058;77;21112;-45
2023/03/07 04:28:48;;;;;;;1.57;1.02;;;;;;;4.24;64.25;101250.10;1856840;77;21043;-45
2023/03/07 04:31:22;;;;;;;1.32;0.78;;;;;;;4.31;64.26;101264.40;1842538;77;21158;-45
2023/03/07 04:33:51;;;;;;;2.98;1.57;;;;;;;4.33;64.08;101262.65;1820158;79;21231;-44
2023/03/07 04:36:21;;;;;;;2.85;1.25;;;;;;;4.33;64.04;101270.02;1820037;79;21574;-43
2023/03/07 04:38:51;;;;;;;2.85;0.93;;;;;;;4.37;64.17;101272.17;1820094;79;21077;-43
2023/03/07 04:41:25;;;;;;;2.98;1.05;;;;;;;4.36;64.09;101276.98;1822506;77;21570;-44
2023/03/07 04:43:55;;;;;;;2.62;1.07;;;;;;;4.36;64.11;101284.36;1818561;79;21087;-45
2023/03/07 04:46:26;;;;;;;2.37;1.07;;;;;;;4.42;64.07;101282.16;1820148;79;21073;-44
2023/03/07 04:48:55;;;;;;;3.25;0.85;;;;;;;4.49;63.99;101285.17;1820114;79;21049;-44
2023/03/07 04:51:24;;;;;;;2.42;0.78;;;;;;;4.57;63.83;101286.42;1820041;79;21054;-44
2023/03/07 04:53:53;;;;;;;3.52;1.05;;;;;;;4.72;63.74;101286.77;1856153;77;21049;-44
2023/03/07 04:56:22;;;;;;;1.87;0.88;;;;;;;4.96;63.48;101260.53;1856435;77;21061;-44
2023/03/07 04:58:50;;;;;;;4.40;1.45;;;;;;;5.16;62.89;101271.23;1856812;77;21570;-45
2023/03/07 05:01:19;;;;;;;2.95;1.10;;;;;;;5.27;62.48;101271.16;1856863;77;21065;-46
2023/03/07 05:03:49;;;;;;;1.30;1.00;;;;;;;5.49;61.94;101263.98;1871392;76;21557;-48
2023/03/07 05:06:19;;;;;;;2.40;0.98;;;;;;;5.74;61.35;101255.48;1888624;76;21053;-46
2023/03/07 05:08:49;;;;;;;3.70;1.00;;;;;;;5.76;60.91;101262.41;1886798;76;21155;-43
2023/03/07 05:11:19;;;;;;;4.20;1.25;;;;;;;5.57;61.00;101269.99;1888600;76;21131;-44
2023/03/07 05:13:48;;;;;;;4.45;1.12;;;;;;;5.47;61.19;101268.37;1852703;76;21496;-44
2023/03/07 05:16:18;;;;;;;3.87;1.40;;;;;;;5.64;61.37;101270.81;1819739;79;21537;-45
2023/03/07 05:18:48;;;;;;;1.95;1.35;;;;;;;5.95;60.97;101277.46;1814696;79;21147;-44
2023/03/07 05:21:17;;;;;;;4.55;0.93;;;;;;;6.39;60.12;101279.12;1810455;79;21554;-45
2023/03/07 05:23:47;;;;;;;4.92;1.00;;;;;;;6.85;59.76;101278.48;1820444;77;21227;-45
2023/03/07 05:26:17;;;;;;;2.37;1.30;;;;;;;7.29;59.18;101276.91;1847290;78;21070;-44
2023/03/07 05:28:46;;;;;;;2.85;1.42;;;;;;;7.71;57.52;101269.19;1847029;78;21062;-44
2023/03/07 05:31:14;;;;;;;1.60;1.02;;;;;;;8.04;57.27;101275.98;1847396;77;21470;-47
2023/03/07 05:33:43;;;;;;;2.98;1.10;;;;;;;8.33;55.83;101290.25;1847205;76;21062;-46
2023/03/07 05:36:12;;;;;;;6.33;1.42;;;;;;;8.74;56.16;101273.22;1863545;76;21126;-50
2023/03/07 05:38:40;;;;;;;9.03;1.62;;;;;;;9.01;54.17;101273.02;1864495;77;21107;-46
2023/03/07 05:41:09;;;;;;;2.40;0.90;;;;;;;9.28;53.96;101283.31;1864523;76;21040;-49
2023/03/07 05:43:38;;;;;;;7.87;1.30;;;;;;;9.60;53.53;101276.36;1864597;77;21205;-48
2023/03/07 05:46:06;;;;;;;2.45;1.20;;;;;;;10.08;54.04;101271.97;1824709;76;21100;-55
2023/03/07 05:48:35;;;;;;;5.42;1.25;;;;;;;10.40;52.65;101270.20;1810179;78;21195;-49
2023/03/07 05:51:04;;;;;;;2.45;0.90;;;;;;;10.74;52.78;101270.04;1810654;78;21091;-45
2023/03/07 05:53:33;;;;;;;1.57;0.93;;;;;;;11.26;51.84;101266.17;1810595;79;21200;-44
2023/03/07 05:56:02;;;;;;;4.62;1.15;;;;;;;11.45;49.35;101265.08;1828857;76;21156;-44
2023/03/07 05:58:31;;;;;;;5.22;1.45;;;;;;;11.63;48.49;101258.78;1847158;78;21082;-44
2023/03/07 06:01:02;;;;;;;4.05;1.02;;;;;;;11.62;48.14;101242.11;1847083;76;21169;-49
2023/03/07 06:03:31;;;;;;;2.05;1.07;;;;;;;11.78;48.10;101253.84;1847226;78;21133;-45
2023/03/07 06:06:00;;;;;;;5.42;1.30;;;;;;;12.07;47.48;101255.89;1844537;78;21109;-44
2023/03/07 06:08:29;;;;;;;3.30;1.17;;;;;;;12.18;47.11;101262.09;1847196;77;21038;-46
2023/03/07 06:10:58;;;;;;;3.92;0.93;;;;;;;12.72;48.10;101272.76;1844595;76;21616;-45
2023/03/07 06:13:26;;;;;;;1.80;0.95;;;;;;;13.26;47.23;101265.75;1847105;78;21081;-44
2023/03/07 06:15:55;;;;;;;2.17;1.25;;;;;;;13.76;46.18;101269.39;1846306;78;21031;-44
2023/03/07 06:18:26;;;;;;;4.28;1.20;;;;;;;13.99;45.04;101264.38;1846971;77;21545;-43
2023/03/07 06:20:59;;;;;;;3.55;1.02;;;;;;;14.34;45.87;101259.74;1856628;77;21041;-44
2023/03/07 06:23:32;;;;;;;5.75;1.22;;;;;;;14.59;43.18;101255.05;1856848;77;21025;-47
2023/03/07 06:26:01;;;;;;;2.35;0.90;;;;;;;14.61;43.11;101257.15;1856595;77;21476;-45
2023/03/07 06:28:31;;;;;;;2.47;0.98;;;;;;;14.99;43.45;101249.11;1856671;76;21019;-45
2023/03/07 06:31:00;;;;;;;4.00;1.00;;;;;;;15.18;41.55;101250.84;1856809;77;21540;-45
2023/03/07 06:33:29;;;;;;;3.55;1.00;;;;;;;14.83;40.19;101238.42;1856784;77;21555;-45
2023/03/07 06:35:58;;;;;;;3.47;0.93;;;;;;;14.52;37.58;101228.41;1856667;77;21070;-93
2023/03/07 06:38:27;;;;;;;3.30;1.10;;;;;;;14.28;36.99;101234.40;1856188;76;21071;-47
2023/03/07 06:40:56;;;;;;;5.87;1.00;;;;;;;13.82;35.43;101238.67;1856579;77;21133;-46
2023/03/07 06:43:25;;;;;;;3.98;1.15;;;;;;;13.14;35.15;101233.62;1856784;77;21572;-45
2023/03/07 06:45:54;;;;;;;1.40;1.10;;;;;;;12.81;35.35;101238.98;1856955;76;21211;-44
2023/03/07 06:48:25;;;;;;;2.35;1.07;;;;;;;12.58;34.77;101244.73;1870285;76;21505;-45
2023/03/07 06:50:53;;;;;;;3.08;1.20;;;;;;;12.60;35.38;101250.80;1888542;76;21053;-44
2023/03/07 06:53:22;;;;;;;2.42;1.32;;;;;;;12.89;35.40;101238.19;1862954;76;21135;-45
2023/03/07 06:55:52;;;;;;;3.25;1.40;;;;;;;12.81;35.43;101240.30;1856726;77;21515;-44
2023/03/07 06:58:21;;;;;;;4.08;1.50;;;;;;;12.46;35.62;101239.91;1856789;77;21103;-45
2023/03/07 07:00:50;;;;;;;5.90;1.80;;;;;;;13.27;35.41;101243.69;1856706;77;21036;-46
2023/03/07 07:03:20;;;;;;;6.50;2.12;;;;;;;14.15;34.51;101253.13;1856764;77;21198;-42
2023/03/07 07:05:48;;;;;;;3.40;1.57;;;;;;;14.14;33.95;101261.51;1885780;76;21162;-44
2023/03/07 07:08:17;;;;;;;4.33;1.85;;;;;;;14.35;33.89;101254.37;1888678;76;21473;-45
2023/03/07 07:10:47;;;;;;;3.45;2.00;;;;;;;14.86;32.65;101260.81;1888739;76;21143;-43
2023/03/07 07:13:16;;;;;;;4.05;2.20;;;;;;;14.82;33.00;101263.67;1888759;76;21073;-45
2023/03/07 07:15:45;;;;;;;5.00;2.25;;;;;;;14.10;32.55;101228.16;1888756;76;21112;-46
2023/03/07 07:18:14;;;;;;;7.25;2.27;;;;;;;13.64;33.94;101262.83;1888581;76;21038;-45
2023/03/07 07:20:43;;;;;;;2.90;1.50;;;;;;;13.35;34.10;101244.23;1881258;75;21545;-45
2023/03/07 07:23:11;;;;;;;4.00;1.90;;;;;;;13.19;35.11;101241.84;1878810;76;21045;-47
2023/03/07 07:25:40;;;;;;;5.12;1.87;;;;;;;12.69;36.07;101234.59;1878907;76;21087;-46
2023/03/07 07:28:08;;;;;;;5.50;2.42;;;;;;;12.97;35.04;101259.91;1878848;76;21412;-45
2023/03/07 07:30:37;;;;;;;4.80;1.57;;;;;;;12.61;35.88;101249.87;1878748;76;21066;-45
2023/03/07 07:33:06;;;;;;;3.77;1.95;;;;;;;13.00;36.12;101258.44;1878819;76;21092;-45
2023/03/07 07:35:35;;;;;;;4.72;1.92;;;;;;;13.37;34.45;101242.42;1878757;76;21026;-47
2023/03/07 07:38:03;;;;;;;4.47;2.00;;;;;;;13.01;34.77;101243.45;1878833;76;21096;-48
2023/03/07 07:40:32;;;;;;;4.83;1.85;;;;;;;12.65;35.45;101254.14;1873306;75;21039;-47
2023/03/07 07:43:01;;;;;;;7.60;2.10;;;;;;;12.18;36.21;101262.56;1845822;78;21530;-48
2023/03/07 07:45:34;;;;;;;4.22;1.47;;;;;;;11.96;36.33;101244.40;1844977;78;21270;-48
2023/03/07 07:48:03;;;;;;;4.58;1.57;;;;;;;11.80;36.52;101265.62;1845841;78;21055;-47
2023/03/07 07:50:32;;;;;;;4.97;1.65;;;;;;;11.45;37.76;101262.45;1845747;78;21078;-47
2023/03/07 07:53:00;;;;;;;3.62;1.50;;;;;;;11.85;38.30;101263.69;1845684;78;21046;-47
2023/03/07 07:55:29;;;;;;;5.45;1.52;;;;;;;13.34;36.77;101266.81;1845756;78;21188;-47
2023/03/07 07:57:58;;;;;;;2.42;1.77;;;;;;;14.06;35.35;101262.33;1845565;78;21116;-48
2023/03/07 08:00:27;;;;;;;6.78;2.00;;;;;;;13.50;36.27;101251.98;1845946;78;21464;-47
2023/03/07 08:02:56;;;;;;;4.92;2.00;;;;;;;12.82;37.27;101271.08;1845800;78;21132;-47
2023/03/07 08:05:24;;;;;;;3.15;1.65;;;;;;;13.67;37.11;101273.77;1845861;78;21070;-47
2023/03/07 08:07:55;;;;;;;5.03;1.80;;;;;;;14.47;36.05;101289.55;1845901;78;21140;-48
2023/03/07 08:10:23;;;;;;;4.92;1.80;;;;;;;14.24;35.30;101293.27;1845865;78;21050;-46
2023/03/07 08:12:52;;;;;;;4.47;1.90;;;;;;;13.88;35.99;101283.39;1845694;78;21070;-47
2023/03/07 08:15:22;;;;;;;4.78;2.25;;;;;;;13.43;36.63;101302.98;1845759;78;21616;-46
2023/03/07 08:17:51;;;;;;;6.30;2.37;;;;;;;13.25;37.31;101294.47;1845774;78;21140;-48
2023/03/07 08:20:22;;;;;;;6.12;1.55;;;;;;;13.76;37.51;101268.07;1845776;77;21133;-51
2023/03/07 08:22:51;;;;;;;4.40;1.67;;;;;;;13.95;37.25;101293.73;1845621;78;21553;-48
2023/03/07 08:25:22;;;;;;;6.37;1.92;;;;;;;13.64;38.42;101299.03;1845754;78;21117;-46
2023/03/07 08:27:54;;;;;;;3.22;1.30;;;;;;;13.48;39.00;101301.02;1845771;78;21027;-46
2023/03/07 08:30:24;;;;;;;6.03;2.00;;;;;;;12.67;40.37;101299.84;1845725;78;21166;-45
2023/03/07 08:32:54;;;;;;;2.95;1.55;;;;;;;12.21;41.62;101293.67;1845833;78;21054;-48
2023/03/07 08:35:25;;;;;;;7.28;1.90;;;;;;;12.73;41.54;101296.95;1845746;78;21489;-46
2023/03/07 08:37:59;;;;;;;9.78;1.80;;;;;;;13.40;40.68;101295.64;1845743;78;21173;-42
2023/03/07 08:40:30;;;;;;;3.87;2.12;;;;;;;13.46;40.37;101283.03;1849177;77;21183;-44
2023/03/07 08:43:01;;;;;;;4.83;1.80;;;;;;;13.72;40.19;101298.22;1870654;76;21052;-43
2023/03/07 08:45:30;;;;;;;3.08;1.77;;;;;;;14.12;39.78;101307.53;1870899;77;21072;-47
2023/03/07 08:47:59;;;;;;;5.22;1.80;;;;;;;14.08;39.40;101253.38;1870717;77;21021;-44
2023/03/07 08:50:28;;;;;;;4.83;2.00;;;;;;;14.56;39.37;101293.57;1870803;77;21048;-44
2023/03/07 08:52:57;;;;;;;6.87;1.98;;;;;;;14.56;38.98;101282.13;1870912;77;21158;-46
2023/03/07 08:55:26;;;;;;;5.20;2.12;;;;;;;13.93;39.59;101308.83;1870993;77;21044;-45
2023/03/07 08:57:54;;;;;;;3.45;1.67;;;;;;;13.69;40.46;101233.54;1870936;77;21491;-48
2023/03/07 09:00:24;;;;;;;8.33;2.22;;;;;;;14.10;40.22;101246.22;1870786;77;21016;-46
2023/03/07 09:02:53;;;;;;;4.22;2.00;;;;;;;14.37;39.86;101289.60;1870930;77;21154;-45
2023/03/07 09:05:21;;;;;;;6.20;2.05;;;;;;;14.29;39.90;101287.31;1870842;77;21149;-45
2023/03/07 09:07:50;;;;;;;7.05;1.98;;;;;;;14.81;39.88;101279.17;1870909;77;21080;-44
2023/03/07 09:10:20;;;;;;;7.20;1.45;;;;;;;15.38;39.03;101287.87;1871069;77;21538;-45
2023/03/07 09:12:54;;;;;;;2.92;1.40;;;;;;;15.51;38.62;101273.95;1870742;77;21110;-45
2023/03/07 09:15:23;;;;;;;5.87;2.00;;;;;;;15.48;38.46;101295.37;1871008;77;21020;-46
2023/03/07 09:17:51;;;;;;;2.83;1.52;;;;;;;15.60;37.86;101300.91;1870794;77;21452;-46
2023/03/07 09:20:20;;;;;;;2.83;1.65;;;;;;;15.78;38.10;101297.78;1876198;76;21159;-48
2023/03/07 09:22:50;;;;;;;4.37;1.70;;;;;;;15.80;37.84;101295.91;1887850;75;21074;-46
2023/03/07 09:25:19;;;;;;;5.05;1.82;;;;;;;15.68;37.96;101292.55;1886918;76;21070;-50
2023/03/07 09:27:47;;;;;;;3.30;1.42;;;;;;;15.91;37.87;101278.56;1870592;76;21108;-49
2023/03/07 09:30:17;;;;;;;4.95;2.33;;;;;;;16.52;36.97;101283.20;1854749;77;21079;-48
2023/03/07 09:32:45;;;;;;;4.87;1.85;;;;;;;16.13;36.71;101298.20;1854617;77;21491;-49
2023/03/07 09:35:14;;;;;;;3.77;1.50;;;;;;;15.97;37.32;101243.70;1855089;77;21100;-48
2023/03/07 09:37:42;;;;;;;6.15;1.90;;;;;;;16.07;37.41;101275.48;1858157;77;21026;-52
2023/03/07 09:40:22;;;;;;;5.97;2.27;;;;;;;15.70;37.57;101285.36;1858411;77;21124;-52
2023/03/07 09:43:20;;;;;;;4.78;1.27;;;;;;;15.27;38.07;101280.92;1856153;77;21185;-51
2023/03/07 09:45:59;;;;;;;5.78;1.50;;;;;;;15.02;38.84;101301.16;1857905;76;21119;-50
2023/03/07 09:48:50;;;;;;;4.90;2.27;;;;;;;14.90;39.29;101273.42;1855932;77;21076;-47
2023/03/07 09:51:24;;;;;;;7.08;1.75;;;;;;;15.12;38.75;101237.91;1856129;77;21059;-47
2023/03/07 09:54:02;;;;;;;4.15;1.67;;;;;;;14.74;38.79;101264.05;1857545;76;21035;-46
2023/03/07 09:56:50;;;;;;;5.55;1.77;;;;;;;14.86;39.08;101251.98;1855576;77;21094;-42
2023/03/07 09:59:30;;;;;;;6.08;1.67;;;;;;;14.81;39.34;101231.02;1854556;77;21097;-43
2023/03/07 10:02:17;;;;;;;6.45;1.75;;;;;;;15.00;39.38;101240.23;1847814;76;21126;-40
2023/03/07 10:04:51;;;;;;;5.55;2.40;;;;;;;15.18;39.30;101231.83;1822798;77;21130;-47
2023/03/07 10:07:22;;;;;;;4.67;1.57;;;;;;;15.26;39.06;101240.72;1865968;76;21020;-43
2023/03/07 10:10:00;;;;;;;2.52;1.50;;;;;;;15.34;39.24;101229.23;1837055;76;21445;-43
2023/03/07 10:12:34;;;;;;;4.30;1.50;;;;;;;15.46;39.34;101226.44;1819026;78;21058;-43
2023/03/07 10:15:15;;;;;;;4.78;1.70;;;;;;;15.30;39.27;101244.93;1825276;77;21126;-43
2023/03/07 10:18:01;;;;;;;2.85;1.67;;;;;;;14.50;40.41;101242.20;1821403;77;21164;-43
2023/03/07 10:20:51;;;;;;;5.17;1.77;;;;;;;14.07;41.56;101249.47;1826166;77;21083;-43
2023/03/07 10:23:41;;;;;;;2.40;1.15;;;;;;;13.53;42.29;101251.86;1808648;78;21181;-44
2023/03/07 10:26:15;;;;;;;2.80;1.57;;;;;;;12.63;43.83;101249.34;1827500;78;21106;-46
2023/03/07 10:28:46;;;;;;;6.30;2.08;;;;;;;12.49;44.82;101255.66;1835384;77;21008;-44
2023/03/07 10:31:24;;;;;;;2.27;1.50;;;;;;;12.03;45.49;101255.61;1836148;77;21154;-45
2023/03/07 10:33:54;;;;;;;7.87;1.85;;;;;;;11.93;46.26;101219.91;1836395;78;21153;-44
2023/03/07 10:36:45;;;;;;;8.43;2.52;;;;;;;12.08;46.41;101241.78;1831184;77;21656;-45
2023/03/07 10:39:16;;;;;;;5.97;2.10;;;;;;;12.13;47.07;101241.59;1844535;77;21067;-45
2023/03/07 10:41:45;;;;;;;3.85;2.55;;;;;;;12.86;46.58;101238.34;1839771;76;21023;-45
2023/03/07 10:44:17;;;;;;;5.45;1.70;;;;;;;13.39;44.70;101241.00;1841443;76;21018;-45
2023/03/07 10:46:46;;;;;;;3.08;1.05;;;;;;;13.08;44.85;101229.06;1848323;76;21117;-50
2023/03/07 10:49:23;;;;;;;10.68;1.95;;;;;;;13.04;45.32;101236.27;1836274;78;21051;-51
2023/03/07 10:52:00;;;;;;;5.00;1.75;;;;;;;12.74;45.71;101237.03;1820719;78;21144;-50
2023/03/07 10:54:32;;;;;;;8.23;1.90;;;;;;;12.91;46.07;101249.56;1806474;78;21570;-51
2023/03/07 10:57:13;;;;;;;5.87;2.47;;;;;;;13.43;45.11;101225.42;1832585;76;21171;-50
2023/03/07 10:59:46;;;;;;;4.28;2.05;;;;;;;14.13;43.83;101202.87;1835317;78;21048;-48
2023/03/07 11:02:35;;;;;;;7.13;2.17;;;;;;;14.52;43.27;101231.05;1835763;78;21043;-47
2023/03/07 11:05:25;;;;;;;7.03;1.47;;;;;;;14.06;43.40;101188.19;1806368;79;21835;-50
2023/03/07 11:07:54;;;;;;;4.87;1.92;;;;;;;13.76;44.54;101204.55;1806517;79;21486;-46
2023/03/07 11:10:32;;;;;;;6.65;1.42;;;;;;;14.25;43.91;101215.99;1806429;78;21083;-47
2023/03/07 11:13:09;;;;;;;9.65;2.75;;;;;;;14.78;43.27;101204.64;1806430;79;21079;-52
2023/03/07 11:15:39;;;;;;;7.20;2.72;;;;;;;14.92;42.46;101201.32;1809326;78;21118;-48
2023/03/07 11:18:25;;;;;;;7.10;2.10;;;;;;;14.20;43.50;101181.79;1834820;78;21079;-46
2023/03/07 11:20:54;;;;;;;5.58;1.60;;;;;;;13.79;44.47;101202.22;1810100;78;21079;-43
2023/03/07 11:23:26;;;;;;;10.95;2.33;;;;;;;13.10;45.95;101187.09;1841826;78;21249;-54
2023/03/07 11:25:57;;;;;;;7.03;1.75;;;;;;;12.70;46.71;101179.48;1850818;76;21087;-44
2023/03/07 11:28:32;;;;;;;7.47;3.17;;;;;;;12.22;47.81;101189.77;1887957;75;21096;-50
2023/03/07 11:31:09;;;;;;;3.67;1.92;;;;;;;12.16;48.23;101194.83;1831906;76;21022;-47
2023/03/07 11:33:45;;;;;;;5.37;1.50;;;;;;;12.54;48.47;101164.74;1865615;76;21102;-46
2023/03/07 11:36:16;;;;;;;7.17;1.87;;;;;;;12.56;48.30;101183.17;1884328;76;21032;-46
2023/03/07 11:39:21;;;;;;;8.63;1.40;;;;;;;12.17;48.74;101189.08;1878454;75;21129;-45
2023/03/07 11:42:02;;;;;;;4.28;1.67;;;;;;;11.82;49.76;101194.34;1878429;75;21130;-46
2023/03/07 11:44:49;;;;;;;6.85;1.77;;;;;;;12.19;50.15;101194.30;1878031;76;21048;-47
2023/03/07 11:47:23;;;;;;;3.02;1.45;;;;;;;12.43;49.43;101184.56;1878180;76;21056;-49